sensor_id;sensor_type;location;lat;lon;timestamp;pressure;altitude;pressure_sealevel;temperature;humidity
59686;BME280;45554;51.096;16.976;2023-08-17T00:00:11;100456.30;;;20.26;80.71
59686;BME280;45554;51.096;16.976;2023-08-17T00:02:59;100458.16;;;20.26;80.46
59686;BME280;45554;51.096;16.976;2023-08-17T00:05:26;100460.14;;;20.25;80.66
59686;BME280;45554;51.096;16.976;2023-08-17T00:07:53;100466.55;;;20.25;80.70
59686;BME280;45554;51.096;16.976;2023-08-17T00:10:20;100469.76;;;20.25;80.71
59686;BME280;45554;51.096;16.976;2023-08-17T00:12:46;100469.95;;;20.25;80.87
59686;BME280;45554;51.096;16.976;2023-08-17T00:15:12;100476.14;;;20.25;81.06
59686;BME280;45554;51.096;16.976;2023-08-17T00:17:41;100478.56;;;20.26;81.51
59686;BME280;45554;51.096;16.976;2023-08-17T00:20:08;100483.11;;;20.27;81.17
59686;BME280;45554;51.096;16.976;2023-08-17T00:22:35;100483.59;;;20.28;81.72
59686;BME280;45554;51.096;16.976;2023-08-17T00:25:02;100486.95;;;20.28;82.01
59686;BME280;45554;51.096;16.976;2023-08-17T00:27:33;100481.85;;;20.27;81.97
59686;BME280;45554;51.096;16.976;2023-08-17T00:29:59;100487.21;;;20.27;81.89
59686;BME280;45554;51.096;16.976;2023-08-17T00:32:26;100499.10;;;20.27;82.11
59686;BME280;45554;51.096;16.976;2023-08-17T00:34:52;100498.70;;;20.28;82.75
59686;BME280;45554;51.096;16.976;2023-08-17T00:37:19;100498.84;;;20.28;82.38
59686;BME280;45554;51.096;16.976;2023-08-17T00:39:46;100498.98;;;20.28;82.35
59686;BME280;45554;51.096;16.976;2023-08-17T00:42:12;100511.03;;;20.29;82.42
59686;BME280;45554;51.096;16.976;2023-08-17T00:44:39;100550.45;;;20.30;82.17
59686;BME280;45554;51.096;16.976;2023-08-17T00:47:05;100572.73;;;20.30;82.01
59686;BME280;45554;51.096;16.976;2023-08-17T00:49:32;100587.63;;;20.23;80.83
59686;BME280;45554;51.096;16.976;2023-08-17T00:51:58;100614.73;;;20.14;80.53
59686;BME280;45554;51.096;16.976;2023-08-17T00:54:25;100647.02;;;20.09;80.53
59686;BME280;45554;51.096;16.976;2023-08-17T00:56:53;100664.14;;;20.07;80.37
59686;BME280;45554;51.096;16.976;2023-08-17T00:59:21;100656.95;;;20.05;80.10
59686;BME280;45554;51.096;16.976;2023-08-17T01:01:48;100656.13;;;20.05;79.93
59686;BME280;45554;51.096;16.976;2023-08-17T01:04:14;100663.89;;;19.97;82.06
59686;BME280;45554;51.096;16.976;2023-08-17T01:06:41;100648.26;;;19.76;84.00
59686;BME280;45554;51.096;16.976;2023-08-17T01:09:07;100648.16;;;19.40;87.89
59686;BME280;45554;51.096;16.976;2023-08-17T01:11:41;100619.73;;;19.01;89.60
59686;BME280;45554;51.096;16.976;2023-08-17T01:14:23;100600.91;;;18.65;94.97
59686;BME280;45554;51.096;16.976;2023-08-17T01:19:26;100564.05;;;18.15;100.00
59686;BME280;45554;51.096;16.976;2023-08-17T01:21:54;106696.35;;;-48.45;100.00
59686;BME280;45554;51.096;16.976;2023-08-17T01:24:24;100526.23;;;17.73;100.00
59686;BME280;45554;51.096;16.976;2023-08-17T01:26:52;100557.90;;;17.50;100.00
59686;BME280;45554;51.096;16.976;2023-08-17T01:29:19;100550.20;;;17.37;100.00
59686;BME280;45554;51.096;16.976;2023-08-17T01:34:32;100518.36;;;17.23;100.00
59686;BME280;45554;51.096;16.976;2023-08-17T01:37:00;100504.45;;;17.20;100.00
59686;BME280;45554;51.096;16.976;2023-08-17T01:39:30;100497.36;;;17.15;100.00
59686;BME280;45554;51.096;16.976;2023-08-17T01:41:59;100490.71;;;17.10;100.00
59686;BME280;45554;51.096;16.976;2023-08-17T01:44:26;100480.43;;;17.06;100.00
59686;BME280;45554;51.096;16.976;2023-08-17T01:46:53;100471.48;;;17.00;100.00
59686;BME280;45554;51.096;16.976;2023-08-17T01:49:22;100469.29;;;16.96;100.00
59686;BME280;45554;51.096;16.976;2023-08-17T01:51:48;100465.19;;;16.92;100.00
59686;BME280;45554;51.096;16.976;2023-08-17T01:54:15;100463.89;;;16.88;100.00
59686;BME280;45554;51.096;16.976;2023-08-17T01:56:41;100462.04;;;16.84;100.00
59686;BME280;45554;51.096;16.976;2023-08-17T01:59:08;100456.27;;;16.79;100.00
59686;BME280;45554;51.096;16.976;2023-08-17T02:01:34;100446.52;;;16.77;100.00
59686;BME280;45554;51.096;16.976;2023-08-17T02:04:03;100444.30;;;16.76;100.00
59686;BME280;45554;51.096;16.976;2023-08-17T02:06:30;100444.23;;;16.77;100.00
59686;BME280;45554;51.096;16.976;2023-08-17T02:08:57;100440.14;;;16.77;100.00
59686;BME280;45554;51.096;16.976;2023-08-17T02:11:24;100439.98;;;16.79;100.00
59686;BME280;45554;51.096;16.976;2023-08-17T02:13:50;100434.00;;;16.83;100.00
59686;BME280;45554;51.096;16.976;2023-08-17T02:16:17;100422.52;;;16.85;100.00
59686;BME280;45554;51.096;16.976;2023-08-17T02:18:43;100424.28;;;16.87;100.00
59686;BME280;45554;51.096;16.976;2023-08-17T02:21:10;100425.19;;;16.92;100.00
59686;BME280;45554;51.096;16.976;2023-08-17T02:23:39;100427.56;;;16.93;100.00
59686;BME280;45554;51.096;16.976;2023-08-17T02:26:05;100424.21;;;16.95;100.00
59686;BME280;45554;51.096;16.976;2023-08-17T02:28:31;100418.98;;;16.96;100.00
59686;BME280;45554;51.096;16.976;2023-08-17T02:30:58;100419.87;;;16.98;100.00
59686;BME280;45554;51.096;16.976;2023-08-17T02:33:27;100424.43;;;17.02;100.00
59686;BME280;45554;51.096;16.976;2023-08-17T02:35:53;100436.70;;;17.03;100.00
59686;BME280;45554;51.096;16.976;2023-08-17T02:38:20;100432.11;;;17.03;100.00
59686;BME280;45554;51.096;16.976;2023-08-17T02:40:48;100430.23;;;17.00;100.00
59686;BME280;45554;51.096;16.976;2023-08-17T02:43:15;100432.23;;;16.99;100.00
59686;BME280;45554;51.096;16.976;2023-08-17T02:45:41;100436.98;;;16.97;100.00
59686;BME280;45554;51.096;16.976;2023-08-17T02:48:07;100436.34;;;16.96;100.00
59686;BME280;45554;51.096;16.976;2023-08-17T02:50:34;100437.88;;;16.97;100.00
59686;BME280;45554;51.096;16.976;2023-08-17T02:53:00;100442.28;;;16.97;100.00
59686;BME280;45554;51.096;16.976;2023-08-17T02:55:28;100448.49;;;16.97;100.00
59686;BME280;45554;51.096;16.976;2023-08-17T02:57:54;100440.50;;;16.95;100.00
59686;BME280;45554;51.096;16.976;2023-08-17T03:00:20;100441.28;;;16.94;100.00
59686;BME280;45554;51.096;16.976;2023-08-17T03:02:47;100452.59;;;16.92;100.00
59686;BME280;45554;51.096;16.976;2023-08-17T03:05:13;100457.52;;;16.91;100.00
59686;BME280;45554;51.096;16.976;2023-08-17T03:07:40;100454.59;;;16.92;100.00
59686;BME280;45554;51.096;16.976;2023-08-17T03:10:07;100459.75;;;16.93;100.00
59686;BME280;45554;51.096;16.976;2023-08-17T03:12:33;100470.98;;;16.95;100.00
59686;BME280;45554;51.096;16.976;2023-08-17T03:14:59;100480.54;;;16.97;100.00
59686;BME280;45554;51.096;16.976;2023-08-17T03:17:28;100491.40;;;16.96;100.00
59686;BME280;45554;51.096;16.976;2023-08-17T03:19:54;100490.80;;;16.95;100.00
59686;BME280;45554;51.096;16.976;2023-08-17T03:22:21;100493.11;;;16.95;100.00
59686;BME280;45554;51.096;16.976;2023-08-17T03:24:47;100498.23;;;16.92;100.00
59686;BME280;45554;51.096;16.976;2023-08-17T03:27:14;100500.52;;;16.93;100.00
59686;BME280;45554;51.096;16.976;2023-08-17T03:29:40;100500.80;;;16.94;100.00
59686;BME280;45554;51.096;16.976;2023-08-17T03:32:07;100496.93;;;16.96;100.00
59686;BME280;45554;51.096;16.976;2023-08-17T03:34:34;100493.83;;;16.97;100.00
59686;BME280;45554;51.096;16.976;2023-08-17T03:37:00;100501.63;;;16.98;100.00
59686;BME280;45554;51.096;16.976;2023-08-17T03:39:27;100505.53;;;16.99;100.00
59686;BME280;45554;51.096;16.976;2023-08-17T03:41:54;100508.44;;;17.00;100.00
59686;BME280;45554;51.096;16.976;2023-08-17T03:44:20;100504.20;;;17.00;100.00
59686;BME280;45554;51.096;16.976;2023-08-17T03:46:48;100496.16;;;16.99;100.00
59686;BME280;45554;51.096;16.976;2023-08-17T03:49:14;100491.97;;;16.98;100.00
59686;BME280;45554;51.096;16.976;2023-08-17T03:51:40;100495.45;;;17.01;100.00
59686;BME280;45554;51.096;16.976;2023-08-17T03:54:07;100502.50;;;17.04;100.00
59686;BME280;45554;51.096;16.976;2023-08-17T03:56:33;100506.17;;;17.07;100.00
59686;BME280;45554;51.096;16.976;2023-08-17T03:59:00;100502.24;;;17.10;100.00
59686;BME280;45554;51.096;16.976;2023-08-17T04:01:26;100509.61;;;17.13;100.00
59686;BME280;45554;51.096;16.976;2023-08-17T04:03:54;100511.25;;;17.17;100.00
59686;BME280;45554;51.096;16.976;2023-08-17T04:06:21;100514.92;;;17.22;100.00
59686;BME280;45554;51.096;16.976;2023-08-17T04:08:47;100522.71;;;17.26;100.00
59686;BME280;45554;51.096;16.976;2023-08-17T04:11:14;100528.75;;;17.28;100.00
59686;BME280;45554;51.096;16.976;2023-08-17T04:13:40;100528.51;;;17.29;100.00
59686;BME280;45554;51.096;16.976;2023-08-17T04:16:07;100524.78;;;17.32;100.00
59686;BME280;45554;51.096;16.976;2023-08-17T04:18:33;100527.96;;;17.34;100.00
59686;BME280;45554;51.096;16.976;2023-08-17T04:20:59;100526.64;;;17.37;100.00
59686;BME280;45554;51.096;16.976;2023-08-17T04:23:26;100531.43;;;17.41;100.00
59686;BME280;45554;51.096;16.976;2023-08-17T04:25:53;100530.55;;;17.48;100.00
59686;BME280;45554;51.096;16.976;2023-08-17T04:28:19;100535.08;;;17.53;100.00
59686;BME280;45554;51.096;16.976;2023-08-17T04:30:46;100534.73;;;17.58;100.00
59686;BME280;45554;51.096;16.976;2023-08-17T04:33:13;100533.13;;;17.63;100.00
59686;BME280;45554;51.096;16.976;2023-08-17T04:35:39;100539.74;;;17.66;100.00
59686;BME280;45554;51.096;16.976;2023-08-17T04:38:06;100549.68;;;17.68;100.00
59686;BME280;45554;51.096;16.976;2023-08-17T04:40:32;100565.30;;;17.66;100.00
59686;BME280;45554;51.096;16.976;2023-08-17T04:43:00;100572.35;;;17.57;100.00
59686;BME280;45554;51.096;16.976;2023-08-17T04:45:27;100575.39;;;17.50;100.00
59686;BME280;45554;51.096;16.976;2023-08-17T04:47:53;100579.86;;;17.48;100.00
59686;BME280;45554;51.096;16.976;2023-08-17T04:50:20;100584.58;;;17.46;100.00
59686;BME280;45554;51.096;16.976;2023-08-17T04:52:47;100583.56;;;17.48;100.00
59686;BME280;45554;51.096;16.976;2023-08-17T04:55:14;100579.26;;;17.51;100.00
59686;BME280;45554;51.096;16.976;2023-08-17T04:57:41;100575.33;;;17.58;100.00
59686;BME280;45554;51.096;16.976;2023-08-17T05:00:10;100568.70;;;17.66;100.00
59686;BME280;45554;51.096;16.976;2023-08-17T05:02:36;100571.77;;;17.71;100.00
59686;BME280;45554;51.096;16.976;2023-08-17T05:05:04;100569.17;;;17.79;100.00
59686;BME280;45554;51.096;16.976;2023-08-17T05:07:31;100571.46;;;17.88;100.00
59686;BME280;45554;51.096;16.976;2023-08-17T05:09:58;100570.38;;;17.95;100.00
59686;BME280;45554;51.096;16.976;2023-08-17T05:12:24;100563.03;;;18.03;100.00
59686;BME280;45554;51.096;16.976;2023-08-17T05:14:51;100562.39;;;18.11;100.00
59686;BME280;45554;51.096;16.976;2023-08-17T05:17:18;100556.35;;;18.20;100.00
59686;BME280;45554;51.096;16.976;2023-08-17T05:19:44;100552.38;;;18.25;100.00
59686;BME280;45554;51.096;16.976;2023-08-17T05:22:12;100549.82;;;18.32;100.00
59686;BME280;45554;51.096;16.976;2023-08-17T05:24:38;100553.46;;;18.42;100.00
59686;BME280;45554;51.096;16.976;2023-08-17T05:27:06;100562.14;;;18.50;100.00
59686;BME280;45554;51.096;16.976;2023-08-17T05:29:33;100567.30;;;18.55;100.00
59686;BME280;45554;51.096;16.976;2023-08-17T05:31:59;100574.82;;;18.58;100.00
59686;BME280;45554;51.096;16.976;2023-08-17T05:34:26;100577.28;;;18.56;100.00
59686;BME280;45554;51.096;16.976;2023-08-17T05:36:53;100581.63;;;18.57;100.00
59686;BME280;45554;51.096;16.976;2023-08-17T05:39:20;100587.54;;;18.61;100.00
59686;BME280;45554;51.096;16.976;2023-08-17T05:41:46;100586.55;;;18.64;100.00
59686;BME280;45554;51.096;16.976;2023-08-17T05:44:12;100578.55;;;18.67;100.00
59686;BME280;45554;51.096;16.976;2023-08-17T05:46:41;100572.05;;;18.68;100.00
59686;BME280;45554;51.096;16.976;2023-08-17T05:49:08;100565.65;;;18.70;100.00
59686;BME280;45554;51.096;16.976;2023-08-17T05:51:34;100559.24;;;18.72;100.00
59686;BME280;45554;51.096;16.976;2023-08-17T05:54:00;100560.61;;;18.77;100.00
59686;BME280;45554;51.096;16.976;2023-08-17T05:56:27;100567.48;;;18.86;100.00
59686;BME280;45554;51.096;16.976;2023-08-17T05:58:54;100571.73;;;18.90;100.00
59686;BME280;45554;51.096;16.976;2023-08-17T06:01:22;100568.17;;;18.95;100.00
59686;BME280;45554;51.096;16.976;2023-08-17T06:03:52;100566.67;;;19.00;100.00
59686;BME280;45554;51.096;16.976;2023-08-17T06:06:20;100567.36;;;19.03;100.00
59686;BME280;45554;51.096;16.976;2023-08-17T06:08:46;100569.79;;;19.05;100.00
59686;BME280;45554;51.096;16.976;2023-08-17T06:11:12;100566.05;;;19.10;100.00
59686;BME280;45554;51.096;16.976;2023-08-17T06:13:39;100565.58;;;19.17;100.00
59686;BME280;45554;51.096;16.976;2023-08-17T06:16:05;100567.71;;;19.24;100.00
59686;BME280;45554;51.096;16.976;2023-08-17T06:18:34;100568.98;;;19.27;100.00
59686;BME280;45554;51.096;16.976;2023-08-17T06:21:01;100569.77;;;19.32;100.00
59686;BME280;45554;51.096;16.976;2023-08-17T06:23:27;100569.88;;;19.35;100.00
59686;BME280;45554;51.096;16.976;2023-08-17T06:25:57;100567.02;;;19.33;100.00
59686;BME280;45554;51.096;16.976;2023-08-17T06:28:24;100567.73;;;19.40;100.00
59686;BME280;45554;51.096;16.976;2023-08-17T06:30:54;100567.26;;;19.43;100.00
59686;BME280;45554;51.096;16.976;2023-08-17T06:33:21;100570.12;;;19.47;100.00
59686;BME280;45554;51.096;16.976;2023-08-17T06:35:48;100575.72;;;19.56;100.00
59686;BME280;45554;51.096;16.976;2023-08-17T06:38:15;100579.27;;;19.64;100.00
59686;BME280;45554;51.096;16.976;2023-08-17T06:40:45;100585.23;;;19.73;100.00
59686;BME280;45554;51.096;16.976;2023-08-17T06:43:11;100585.09;;;19.81;100.00
59686;BME280;45554;51.096;16.976;2023-08-17T06:45:37;100583.98;;;19.87;100.00
59686;BME280;45554;51.096;16.976;2023-08-17T06:48:04;100581.43;;;19.96;100.00
59686;BME280;45554;51.096;16.976;2023-08-17T06:50:31;100579.23;;;20.03;100.00
59686;BME280;45554;51.096;16.976;2023-08-17T06:52:57;100587.27;;;20.11;100.00
59686;BME280;45554;51.096;16.976;2023-08-17T06:55:23;100590.84;;;20.19;100.00
59686;BME280;45554;51.096;16.976;2023-08-17T06:57:50;100592.73;;;20.23;100.00
59686;BME280;45554;51.096;16.976;2023-08-17T07:00:18;100594.83;;;20.29;100.00
59686;BME280;45554;51.096;16.976;2023-08-17T07:02:48;100598.10;;;20.37;100.00
59686;BME280;45554;51.096;16.976;2023-08-17T07:05:21;100596.77;;;20.43;100.00
59686;BME280;45554;51.096;16.976;2023-08-17T07:07:47;100595.34;;;20.51;100.00
59686;BME280;45554;51.096;16.976;2023-08-17T07:10:14;100585.77;;;20.58;100.00
59686;BME280;45554;51.096;16.976;2023-08-17T07:12:41;100583.64;;;20.70;100.00
59686;BME280;45554;51.096;16.976;2023-08-17T07:15:07;100579.05;;;20.77;100.00
59686;BME280;45554;51.096;16.976;2023-08-17T07:17:34;100582.77;;;20.83;100.00
59686;BME280;45554;51.096;16.976;2023-08-17T07:20:00;100589.64;;;20.90;100.00
59686;BME280;45554;51.096;16.976;2023-08-17T07:22:42;100597.46;;;20.98;100.00
59686;BME280;45554;51.096;16.976;2023-08-17T07:25:08;100603.25;;;21.05;100.00
59686;BME280;45554;51.096;16.976;2023-08-17T07:27:35;100600.80;;;21.14;100.00
59686;BME280;45554;51.096;16.976;2023-08-17T07:30:01;100592.73;;;21.25;100.00
59686;BME280;45554;51.096;16.976;2023-08-17T07:32:28;100587.96;;;21.40;100.00
59686;BME280;45554;51.096;16.976;2023-08-17T07:34:55;100584.80;;;21.55;100.00
59686;BME280;45554;51.096;16.976;2023-08-17T07:37:21;100582.52;;;21.73;100.00
59686;BME280;45554;51.096;16.976;2023-08-17T07:39:48;100578.41;;;21.97;100.00
59686;BME280;45554;51.096;16.976;2023-08-17T07:42:15;100579.02;;;22.18;100.00
59686;BME280;45554;51.096;16.976;2023-08-17T07:44:41;100577.54;;;22.38;100.00
59686;BME280;45554;51.096;16.976;2023-08-17T07:47:08;100575.71;;;22.51;100.00
59686;BME280;45554;51.096;16.976;2023-08-17T07:49:35;100577.80;;;22.66;100.00
59686;BME280;45554;51.096;16.976;2023-08-17T07:52:01;100576.63;;;22.71;100.00
59686;BME280;45554;51.096;16.976;2023-08-17T07:54:28;100581.16;;;22.75;100.00
59686;BME280;45554;51.096;16.976;2023-08-17T07:56:54;100579.55;;;22.79;100.00
59686;BME280;45554;51.096;16.976;2023-08-17T07:59:21;100578.45;;;22.85;100.00
59686;BME280;45554;51.096;16.976;2023-08-17T08:01:47;100580.58;;;22.86;100.00
59686;BME280;45554;51.096;16.976;2023-08-17T08:04:14;100576.18;;;22.87;100.00
59686;BME280;45554;51.096;16.976;2023-08-17T08:06:41;100574.31;;;22.88;100.00
59686;BME280;45554;51.096;16.976;2023-08-17T08:09:11;100576.08;;;22.86;100.00
59686;BME280;45554;51.096;16.976;2023-08-17T08:11:38;100573.75;;;22.88;100.00
59686;BME280;45554;51.096;16.976;2023-08-17T08:14:04;100576.12;;;22.92;100.00
59686;BME280;45554;51.096;16.976;2023-08-17T08:16:31;100572.90;;;22.93;100.00
59686;BME280;45554;51.096;16.976;2023-08-17T08:18:57;100573.58;;;22.94;100.00
59686;BME280;45554;51.096;16.976;2023-08-17T08:21:24;100570.36;;;22.95;100.00
59686;BME280;45554;51.096;16.976;2023-08-17T08:23:51;100572.02;;;22.97;100.00
59686;BME280;45554;51.096;16.976;2023-08-17T08:26:17;100568.75;;;22.97;100.00
59686;BME280;45554;51.096;16.976;2023-08-17T08:28:43;100568.45;;;22.93;100.00
59686;BME280;45554;51.096;16.976;2023-08-17T08:31:10;100565.20;;;22.88;100.00
59686;BME280;45554;51.096;16.976;2023-08-17T08:33:37;100564.16;;;22.88;100.00
59686;BME280;45554;51.096;16.976;2023-08-17T08:36:03;100565.50;;;22.94;100.00
59686;BME280;45554;51.096;16.976;2023-08-17T08:38:35;100569.56;;;23.01;100.00
59686;BME280;45554;51.096;16.976;2023-08-17T08:41:10;100571.41;;;23.15;100.00
59686;BME280;45554;51.096;16.976;2023-08-17T08:43:42;100570.92;;;23.32;100.00
59686;BME280;45554;51.096;16.976;2023-08-17T08:46:11;100569.23;;;23.48;100.00
59686;BME280;45554;51.096;16.976;2023-08-17T08:48:48;100566.75;;;23.67;100.00
59686;BME280;45554;51.096;16.976;2023-08-17T08:51:20;100566.27;;;23.87;100.00
59686;BME280;45554;51.096;16.976;2023-08-17T08:54:00;100566.23;;;24.07;100.00
59686;BME280;45554;51.096;16.976;2023-08-17T08:56:31;100564.90;;;24.29;100.00
59686;BME280;45554;51.096;16.976;2023-08-17T08:58:59;100563.61;;;24.48;100.00
59686;BME280;45554;51.096;16.976;2023-08-17T09:01:28;100561.64;;;24.66;100.00
59686;BME280;45554;51.096;16.976;2023-08-17T09:03:57;100559.20;;;24.87;100.00
59686;BME280;45554;51.096;16.976;2023-08-17T09:06:27;100558.50;;;25.09;100.00
59686;BME280;45554;51.096;16.976;2023-08-17T09:08:58;100552.86;;;25.29;99.95
59686;BME280;45554;51.096;16.976;2023-08-17T09:11:27;100551.17;;;25.44;97.90
59686;BME280;45554;51.096;16.976;2023-08-17T09:13:54;100557.52;;;25.57;98.19
59686;BME280;45554;51.096;16.976;2023-08-17T09:16:23;100553.26;;;25.69;98.24
59686;BME280;45554;51.096;16.976;2023-08-17T09:18:52;100558.10;;;25.83;99.80
59686;BME280;45554;51.096;16.976;2023-08-17T09:21:22;100559.52;;;25.93;97.82
59686;BME280;45554;51.096;16.976;2023-08-17T09:23:51;100556.83;;;25.96;98.48
59686;BME280;45554;51.096;16.976;2023-08-17T09:26:29;100553.00;;;26.04;99.81
59686;BME280;45554;51.096;16.976;2023-08-17T09:28:59;100552.73;;;26.17;99.89
59686;BME280;45554;51.096;16.976;2023-08-17T09:31:25;100554.52;;;26.31;99.97
59686;BME280;45554;51.096;16.976;2023-08-17T09:33:54;100549.73;;;26.44;99.14
59686;BME280;45554;51.096;16.976;2023-08-17T09:36:21;100544.78;;;26.63;100.00
59686;BME280;45554;51.096;16.976;2023-08-17T09:38:51;100542.58;;;26.80;98.68
59686;BME280;45554;51.096;16.976;2023-08-17T09:41:18;100535.63;;;26.92;97.68
59686;BME280;45554;51.096;16.976;2023-08-17T09:43:45;100535.77;;;27.00;97.77
59686;BME280;45554;51.096;16.976;2023-08-17T09:46:12;100531.38;;;27.07;99.89
59686;BME280;45554;51.096;16.976;2023-08-17T09:48:38;100529.05;;;27.17;100.00
59686;BME280;45554;51.096;16.976;2023-08-17T09:51:05;100530.58;;;27.26;100.00
59686;BME280;45554;51.096;16.976;2023-08-17T09:53:35;100528.96;;;27.43;100.00
59686;BME280;45554;51.096;16.976;2023-08-17T09:56:06;100529.05;;;27.63;100.00
59686;BME280;45554;51.096;16.976;2023-08-17T09:58:42;100528.21;;;27.83;100.00
59686;BME280;45554;51.096;16.976;2023-08-17T10:01:09;100525.90;;;27.94;100.00
59686;BME280;45554;51.096;16.976;2023-08-17T10:03:36;100524.20;;;27.99;100.00
59686;BME280;45554;51.096;16.976;2023-08-17T10:06:05;100524.02;;;28.06;100.00
59686;BME280;45554;51.096;16.976;2023-08-17T10:08:36;100524.72;;;28.15;100.00
59686;BME280;45554;51.096;16.976;2023-08-17T10:11:06;100519.28;;;28.17;100.00
59686;BME280;45554;51.096;16.976;2023-08-17T10:13:35;100525.48;;;28.20;100.00
59686;BME280;45554;51.096;16.976;2023-08-17T10:21:29;100510.72;;;28.29;88.19
59686;BME280;45554;51.096;16.976;2023-08-17T10:23:58;100512.67;;;28.29;84.56
59686;BME280;45554;51.096;16.976;2023-08-17T10:26:24;100508.13;;;28.19;81.02
59686;BME280;45554;51.096;16.976;2023-08-17T10:28:54;100506.91;;;28.15;80.14
59686;BME280;45554;51.096;16.976;2023-08-17T10:31:24;100510.69;;;28.13;78.48
59686;BME280;45554;51.096;16.976;2023-08-17T10:33:54;100507.42;;;28.11;76.80
59686;BME280;45554;51.096;16.976;2023-08-17T10:36:26;100505.82;;;28.13;75.89
59686;BME280;45554;51.096;16.976;2023-08-17T10:41:46;100497.68;;;28.15;73.63
59686;BME280;45554;51.096;16.976;2023-08-17T10:44:14;100501.53;;;28.17;72.59
59686;BME280;45554;51.096;16.976;2023-08-17T10:46:41;100502.19;;;28.19;71.91
59686;BME280;45554;51.096;16.976;2023-08-17T10:49:25;100496.89;;;28.20;70.92
59686;BME280;45554;51.096;16.976;2023-08-17T10:52:03;100495.98;;;28.21;70.18
59686;BME280;45554;51.096;16.976;2023-08-17T10:54:39;100493.84;;;28.24;69.62
59686;BME280;45554;51.096;16.976;2023-08-17T11:02:39;100488.05;;;28.41;67.25
59686;BME280;45554;51.096;16.976;2023-08-17T11:05:07;100487.25;;;28.39;65.90
59686;BME280;45554;51.096;16.976;2023-08-17T11:07:39;100490.84;;;28.38;65.27
59686;BME280;45554;51.096;16.976;2023-08-17T11:10:12;100486.46;;;28.35;64.32
59686;BME280;45554;51.096;16.976;2023-08-17T11:12:53;100485.45;;;28.39;64.67
59686;BME280;45554;51.096;16.976;2023-08-17T11:15:40;100481.72;;;28.47;64.46
59686;BME280;45554;51.096;16.976;2023-08-17T11:18:13;100482.57;;;28.58;64.10
59686;BME280;45554;51.096;16.976;2023-08-17T11:20:40;100479.62;;;28.67;63.78
59686;BME280;45554;51.096;16.976;2023-08-17T11:23:08;100479.66;;;28.75;63.01
59686;BME280;45554;51.096;16.976;2023-08-17T11:25:37;100478.70;;;28.85;62.66
59686;BME280;45554;51.096;16.976;2023-08-17T11:28:05;100478.45;;;28.93;61.89
59686;BME280;45554;51.096;16.976;2023-08-17T11:30:35;100476.35;;;29.01;61.18
59686;BME280;45554;51.096;16.976;2023-08-17T11:33:05;100473.31;;;29.02;60.30
59686;BME280;45554;51.096;16.976;2023-08-17T11:35:32;100473.79;;;29.06;60.48
59686;BME280;45554;51.096;16.976;2023-08-17T11:37:58;100470.48;;;29.18;60.38
59686;BME280;45554;51.096;16.976;2023-08-17T11:40:25;100469.82;;;29.33;60.22
59686;BME280;45554;51.096;16.976;2023-08-17T11:42:52;100469.55;;;29.50;59.61
59686;BME280;45554;51.096;16.976;2023-08-17T11:45:19;100468.90;;;29.66;59.10
59686;BME280;45554;51.096;16.976;2023-08-17T11:47:46;100466.27;;;29.81;58.35
59686;BME280;45554;51.096;16.976;2023-08-17T11:50:13;100464.66;;;29.96;57.60
59686;BME280;45554;51.096;16.976;2023-08-17T11:52:47;100466.13;;;30.11;56.79
59686;BME280;45554;51.096;16.976;2023-08-17T11:55:15;100465.95;;;30.27;56.34
59686;BME280;45554;51.096;16.976;2023-08-17T11:57:43;100470.08;;;30.40;55.71
59686;BME280;45554;51.096;16.976;2023-08-17T12:00:16;100473.31;;;30.51;55.00
59686;BME280;45554;51.096;16.976;2023-08-17T12:02:42;100475.54;;;30.64;54.95
59686;BME280;45554;51.096;16.976;2023-08-17T12:05:12;100471.86;;;30.83;54.87
59686;BME280;45554;51.096;16.976;2023-08-17T12:07:41;100472.56;;;31.04;54.34
59686;BME280;45554;51.096;16.976;2023-08-17T12:10:11;100473.05;;;31.23;53.64
59686;BME280;45554;51.096;16.976;2023-08-17T12:12:39;100469.98;;;31.45;53.32
59686;BME280;45554;51.096;16.976;2023-08-17T12:15:06;100470.05;;;31.69;52.61
59686;BME280;45554;51.096;16.976;2023-08-17T12:17:35;100469.23;;;31.90;52.02
59686;BME280;45554;51.096;16.976;2023-08-17T12:20:03;100468.23;;;32.13;51.58
59686;BME280;45554;51.096;16.976;2023-08-17T12:22:30;100467.92;;;32.37;50.75
59686;BME280;45554;51.096;16.976;2023-08-17T12:24:59;100464.70;;;32.56;50.33
59686;BME280;45554;51.096;16.976;2023-08-17T12:27:25;100460.52;;;32.75;49.88
59686;BME280;45554;51.096;16.976;2023-08-17T12:29:51;100457.27;;;32.90;49.03
59686;BME280;45554;51.096;16.976;2023-08-17T12:36:37;100443.66;;;33.28;46.99
59686;BME280;45554;51.096;16.976;2023-08-17T12:40:49;100437.08;;;33.54;46.66
59686;BME280;45554;51.096;16.976;2023-08-17T12:43:26;100435.56;;;33.72;45.89
59686;BME280;45554;51.096;16.976;2023-08-17T12:47:59;100432.05;;;33.80;44.52
59686;BME280;45554;51.096;16.976;2023-08-17T12:52:23;100419.83;;;33.94;44.16
59686;BME280;45554;51.096;16.976;2023-08-17T12:56:27;100413.02;;;34.29;43.68
59686;BME280;45554;51.096;16.976;2023-08-17T12:59:01;100399.95;;;34.62;43.37
59686;BME280;45554;51.096;16.976;2023-08-17T13:08:31;100379.59;;;35.21;40.89
59686;BME280;45554;51.096;16.976;2023-08-17T13:12:55;100377.24;;;35.28;40.47
59686;BME280;45554;51.096;16.976;2023-08-17T13:17:33;100377.41;;;35.35;39.87